Leavenworth, Kansas
Current Conditions -  °F | °C
As of 7:53 AM on Friday 19 Dec 2014 (Local Time) from KMCI Reporting Station
Haze Haze  
Wind Chill: 24°   Ceiling: 500
Heat Index: 30°   Visibility: 5mi
Dew Point: 28°   Wind: 6mph
Humidity: 92%   Direction: 130°SE
Pressure: 30.26"   Gusts: NA
Location:  39.32°N, 94.91°W
Report Text: KMCI 191353Z 13005KT 5SM BR OVC005 M01/M02 A3026 RMK AO2 SLP255 T10111022 $
Loading
Personal Weather Stations






























Interactive Weather Map New forecast layout! Learn more

10-Day Weather Forecast

Advertisements
Track Severe Weather on mobile